createdAt,value
2018-07-02T00:00:35.632Z,986.60
2018-07-02T00:01:35.847Z,986.59
2018-07-02T00:02:36.041Z,986.57
2018-07-02T00:03:36.228Z,986.53
2018-07-02T00:04:36.423Z,986.54
2018-07-02T00:05:36.637Z,986.51
2018-07-02T00:06:36.824Z,986.48
2018-07-02T00:07:37.035Z,986.49
2018-07-02T00:08:37.222Z,986.44
2018-07-02T00:09:37.423Z,986.45
2018-07-02T00:10:37.619Z,986.39
2018-07-02T00:11:37.815Z,986.44
2018-07-02T00:12:38.012Z,986.42
2018-07-02T00:13:38.194Z,986.41
2018-07-02T00:14:38.399Z,986.44
2018-07-02T00:15:38.587Z,986.43
2018-07-02T00:16:38.793Z,986.45
2018-07-02T00:17:38.991Z,986.46
2018-07-02T00:18:39.193Z,986.43
2018-07-02T00:19:39.406Z,986.42
2018-07-02T00:20:39.618Z,986.43
2018-07-02T00:21:39.797Z,986.45
2018-07-02T00:22:39.986Z,986.43
2018-07-02T00:23:40.194Z,986.43
2018-07-02T00:24:40.402Z,986.43
2018-07-02T00:25:40.591Z,986.40
2018-07-02T00:26:40.796Z,986.42
2018-07-02T00:27:41.002Z,986.41
2018-07-02T00:28:41.210Z,986.41
2018-07-02T00:29:41.421Z,986.41
2018-07-02T00:30:41.614Z,986.40
2018-07-02T00:31:41.879Z,986.37
2018-07-02T00:32:42.046Z,986.37
2018-07-02T00:33:42.241Z,986.33
2018-07-02T00:34:42.426Z,986.37
2018-07-02T00:35:42.610Z,986.37
2018-07-02T00:36:42.808Z,986.35
2018-07-02T00:37:43.004Z,986.34
2018-07-02T00:38:43.246Z,986.32
2018-07-02T00:39:43.449Z,986.32
2018-07-02T00:40:43.638Z,986.30
2018-07-02T00:41:43.827Z,986.32
2018-07-02T00:42:44.034Z,986.28
2018-07-02T00:43:44.219Z,986.28
2018-07-02T00:44:44.434Z,986.29
2018-07-02T00:45:44.637Z,986.29
2018-07-02T00:46:44.877Z,986.31
2018-07-02T00:47:45.019Z,986.29
2018-07-02T00:48:45.212Z,986.31
2018-07-02T00:49:45.416Z,986.33
2018-07-02T00:50:45.628Z,986.34
2018-07-02T00:51:45.832Z,986.34
2018-07-02T00:52:46.038Z,986.34
2018-07-02T00:53:46.232Z,986.32
2018-07-02T00:54:46.417Z,986.28
2018-07-02T00:55:46.609Z,986.25
2018-07-02T00:56:46.825Z,986.24
2018-07-02T00:57:47.029Z,986.23
2018-07-02T00:58:47.224Z,986.21
2018-07-02T00:59:47.415Z,986.20
2018-07-02T01:00:47.594Z,986.23
2018-07-02T01:01:47.781Z,986.18
2018-07-02T01:02:47.987Z,986.21
2018-07-02T01:03:48.193Z,986.19
2018-07-02T01:04:48.379Z,986.20
2018-07-02T01:05:48.569Z,986.20
2018-07-02T01:06:48.779Z,986.18
2018-07-02T01:07:48.964Z,986.20
2018-07-02T01:08:49.167Z,986.16
2018-07-02T01:09:49.370Z,986.19
2018-07-02T01:10:49.584Z,986.21
2018-07-02T01:11:49.773Z,986.21
2018-07-02T01:12:49.978Z,986.23
2018-07-02T01:13:50.182Z,986.28
2018-07-02T01:14:50.381Z,986.22
2018-07-02T01:15:50.593Z,986.23
2018-07-02T01:16:50.792Z,986.23
2018-07-02T01:17:51.000Z,986.17
2018-07-02T01:18:51.185Z,986.13
2018-07-02T01:19:51.396Z,986.15
2018-07-02T01:20:51.605Z,986.10
2018-07-02T01:21:51.816Z,986.09
2018-07-02T01:22:52.021Z,986.08
2018-07-02T01:23:52.205Z,986.10
2018-07-02T01:24:52.394Z,986.08
2018-07-02T01:25:52.613Z,986.06
2018-07-02T01:26:52.810Z,986.09
2018-07-02T01:27:53.024Z,986.08
2018-07-02T01:28:53.240Z,986.07
2018-07-02T01:29:53.426Z,986.04
2018-07-02T01:30:53.628Z,986.06
2018-07-02T01:31:53.813Z,986.05
2018-07-02T01:32:54.009Z,986.06
2018-07-02T01:33:54.194Z,986.07
2018-07-02T01:34:54.394Z,986.03
2018-07-02T01:35:54.581Z,986.05
2018-07-02T01:36:54.777Z,986.02
2018-07-02T01:37:54.985Z,986.01
2018-07-02T01:38:55.175Z,985.99
2018-07-02T01:39:55.367Z,986.00
2018-07-02T01:40:55.555Z,985.98
2018-07-02T01:41:55.759Z,985.96
2018-07-02T01:42:55.959Z,986.01
2018-07-02T01:43:56.144Z,985.96
2018-07-02T01:44:56.354Z,985.94
2018-07-02T01:45:56.554Z,986.00
2018-07-02T01:46:56.760Z,986.01
2018-07-02T01:47:56.947Z,986.02
2018-07-02T01:48:57.156Z,986.06
2018-07-02T01:49:57.345Z,986.07
2018-07-02T01:50:57.535Z,986.08
2018-07-02T01:51:57.726Z,986.08
2018-07-02T01:52:57.923Z,986.07
2018-07-02T01:53:58.127Z,986.05
2018-07-02T01:54:58.305Z,986.05
2018-07-02T01:55:58.494Z,986.07
2018-07-02T01:56:58.717Z,986.01
2018-07-02T01:57:58.894Z,986.01
2018-07-02T01:58:59.092Z,986.00
2018-07-02T01:59:59.274Z,986.00
2018-07-02T02:00:59.485Z,985.98
2018-07-02T02:01:59.683Z,986.01
2018-07-02T02:02:59.852Z,986.02
2018-07-02T02:04:00.067Z,986.00
2018-07-02T02:05:00.255Z,986.03
2018-07-02T02:06:00.448Z,986.02
2018-07-02T02:07:00.634Z,986.04
2018-07-02T02:08:00.824Z,986.07
2018-07-02T02:09:01.039Z,986.04
2018-07-02T02:10:01.230Z,986.08
2018-07-02T02:11:01.425Z,986.05
2018-07-02T02:12:01.634Z,986.06
2018-07-02T02:13:01.826Z,986.05
2018-07-02T02:14:02.037Z,986.06
2018-07-02T02:15:02.218Z,986.05
2018-07-02T02:16:02.406Z,986.06
2018-07-02T02:17:02.609Z,986.04
2018-07-02T02:18:02.788Z,986.04
2018-07-02T02:19:02.972Z,986.05
2018-07-02T02:20:03.179Z,986.08
2018-07-02T02:21:03.392Z,986.05
2018-07-02T02:22:03.569Z,986.05
2018-07-02T02:23:03.773Z,986.10
2018-07-02T02:24:03.952Z,986.08
2018-07-02T02:25:04.159Z,986.07
2018-07-02T02:26:04.345Z,986.08
2018-07-02T02:27:04.535Z,986.07
2018-07-02T02:28:04.745Z,986.06
2018-07-02T02:29:04.925Z,986.08
2018-07-02T02:30:05.114Z,986.06
2018-07-02T02:31:05.309Z,986.09
2018-07-02T02:32:05.495Z,986.10
2018-07-02T02:33:05.686Z,986.10
2018-07-02T02:34:05.863Z,986.07
2018-07-02T02:35:06.058Z,986.08
2018-07-02T02:36:06.257Z,986.06
2018-07-02T02:37:06.473Z,986.06
2018-07-02T02:38:06.658Z,986.05
2018-07-02T02:39:06.845Z,986.07
2018-07-02T02:40:07.050Z,986.05
2018-07-02T02:41:07.240Z,986.07
2018-07-02T02:42:07.426Z,986.05
2018-07-02T02:43:07.650Z,986.06
2018-07-02T02:44:07.843Z,986.08
2018-07-02T02:45:08.028Z,986.06
2018-07-02T02:46:08.212Z,986.06
2018-07-02T02:47:08.406Z,986.07
2018-07-02T02:48:08.617Z,986.07
2018-07-02T02:49:08.807Z,986.08
2018-07-02T02:50:09.002Z,986.07
2018-07-02T02:51:09.198Z,986.08
2018-07-02T02:52:09.386Z,986.05
2018-07-02T02:53:09.593Z,986.08
2018-07-02T02:54:09.782Z,986.05
2018-07-02T02:55:09.965Z,986.08
2018-07-02T02:56:10.175Z,986.10
2018-07-02T02:57:10.357Z,986.12
2018-07-02T02:58:10.566Z,986.14
2018-07-02T02:59:10.752Z,986.17
2018-07-02T03:00:10.935Z,986.16
2018-07-02T03:01:11.125Z,986.20
2018-07-02T03:02:11.326Z,986.15
2018-07-02T03:03:11.537Z,986.17
2018-07-02T03:04:11.739Z,986.16
2018-07-02T03:05:11.930Z,986.19
2018-07-02T03:06:12.116Z,986.24
2018-07-02T03:07:12.328Z,986.18
2018-07-02T03:08:12.523Z,986.18
2018-07-02T03:09:12.724Z,986.19
2018-07-02T03:10:12.932Z,986.23
2018-07-02T03:11:13.128Z,986.26
2018-07-02T03:12:13.312Z,986.27
2018-07-02T03:13:13.525Z,986.24
2018-07-02T03:14:13.737Z,986.25
2018-07-02T03:15:13.921Z,986.20
2018-07-02T03:16:14.126Z,986.23
2018-07-02T03:17:14.324Z,986.24
2018-07-02T03:18:14.514Z,986.21
2018-07-02T03:19:14.716Z,986.25
2018-07-02T03:20:14.936Z,986.25
2018-07-02T03:21:15.106Z,986.24
2018-07-02T03:22:15.293Z,986.32
2018-07-02T03:23:15.480Z,986.32
2018-07-02T03:24:15.680Z,986.32
2018-07-02T03:25:15.890Z,986.32
2018-07-02T03:26:16.079Z,986.30
2018-07-02T03:27:16.278Z,986.30
2018-07-02T03:28:16.475Z,986.31
2018-07-02T03:29:16.682Z,986.25
2018-07-02T03:30:16.892Z,986.25
2018-07-02T03:31:17.090Z,986.23
2018-07-02T03:32:17.284Z,986.19
2018-07-02T03:33:17.486Z,986.17
2018-07-02T03:34:17.683Z,986.20
2018-07-02T03:35:17.891Z,986.17
2018-07-02T03:36:18.105Z,986.20
2018-07-02T03:37:18.297Z,986.18
2018-07-02T03:38:18.528Z,986.19
2018-07-02T03:39:18.724Z,986.20
2018-07-02T03:40:18.910Z,986.17
2018-07-02T03:41:19.098Z,986.18
2018-07-02T03:42:19.297Z,986.17
2018-07-02T03:43:19.486Z,986.16
2018-07-02T03:44:19.679Z,986.15
2018-07-02T03:45:19.864Z,986.14
2018-07-02T03:46:20.062Z,986.17
2018-07-02T03:47:20.269Z,986.12
2018-07-02T03:48:20.453Z,986.12
2018-07-02T03:49:20.651Z,986.10
2018-07-02T03:50:20.845Z,986.11
2018-07-02T03:51:21.018Z,986.10
2018-07-02T03:52:21.215Z,986.10
2018-07-02T03:53:21.410Z,986.06
2018-07-02T03:54:21.614Z,986.07
2018-07-02T03:55:21.835Z,986.05
2018-07-02T03:56:22.045Z,986.05
2018-07-02T03:57:22.229Z,986.13
2018-07-02T03:58:22.433Z,986.08
2018-07-02T03:59:22.626Z,986.10
2018-07-02T04:00:22.825Z,986.13
2018-07-02T04:01:23.044Z,986.16
2018-07-02T04:02:23.213Z,986.19
2018-07-02T04:03:23.405Z,986.24
2018-07-02T04:04:23.605Z,986.25
2018-07-02T04:05:23.806Z,986.25
2018-07-02T04:06:24.002Z,986.25
2018-07-02T04:07:24.187Z,986.27
2018-07-02T04:08:24.391Z,986.30
2018-07-02T04:09:24.596Z,986.29
2018-07-02T04:10:24.874Z,986.34
2018-07-02T04:11:24.952Z,986.32
2018-07-02T04:12:25.137Z,986.34
2018-07-02T04:13:25.348Z,986.36
2018-07-02T04:14:25.534Z,986.31
2018-07-02T04:15:25.728Z,986.33
2018-07-02T04:16:25.936Z,986.41
2018-07-02T04:17:26.121Z,986.47
2018-07-02T04:18:26.319Z,986.50
2018-07-02T04:19:26.523Z,986.50
2018-07-02T04:20:26.723Z,986.50
2018-07-02T04:21:26.906Z,986.55
2018-07-02T04:22:27.106Z,986.58
2018-07-02T04:23:27.311Z,986.63
2018-07-02T04:24:27.537Z,986.66
2018-07-02T04:25:27.746Z,986.70
2018-07-02T04:26:27.959Z,986.72
2018-07-02T04:27:28.136Z,986.70
2018-07-02T04:28:28.346Z,986.74
2018-07-02T04:29:28.539Z,986.77
2018-07-02T04:30:28.742Z,986.79
2018-07-02T04:31:28.955Z,986.77
2018-07-02T04:32:29.142Z,986.76
2018-07-02T04:33:29.333Z,986.74
2018-07-02T04:34:29.516Z,986.80
2018-07-02T04:35:29.711Z,986.77
2018-07-02T04:36:29.916Z,986.81
2018-07-02T04:37:30.097Z,986.85
2018-07-02T04:38:30.310Z,986.87
2018-07-02T04:39:30.504Z,986.93
2018-07-02T04:40:30.714Z,986.97
2018-07-02T04:41:30.913Z,986.99
2018-07-02T04:42:31.197Z,987.00
2018-07-02T04:43:31.288Z,987.03
2018-07-02T04:44:31.479Z,986.97
2018-07-02T04:45:31.667Z,986.99
2018-07-02T04:46:31.877Z,987.00
2018-07-02T04:47:32.083Z,987.08
2018-07-02T04:48:32.299Z,987.08
2018-07-02T04:49:32.500Z,987.11
2018-07-02T04:50:32.711Z,987.15
2018-07-02T04:51:32.928Z,987.15
2018-07-02T04:52:33.111Z,987.22
2018-07-02T04:53:33.430Z,987.31
2018-07-02T04:54:33.509Z,987.40
2018-07-02T04:55:33.720Z,987.50
2018-07-02T04:56:33.936Z,987.61
2018-07-02T04:57:34.139Z,987.74
2018-07-02T04:58:34.358Z,987.99
2018-07-02T04:59:34.585Z,988.48
2018-07-02T05:00:34.778Z,989.05
2018-07-02T05:01:34.976Z,989.40
2018-07-02T05:02:35.170Z,989.57
2018-07-02T05:03:35.380Z,989.90
2018-07-02T05:04:35.608Z,990.31
2018-07-02T05:05:35.807Z,990.64
2018-07-02T05:06:36.030Z,991.63
2018-07-02T05:07:36.233Z,992.59
2018-07-02T05:08:36.442Z,991.89
2018-07-02T05:09:36.635Z,989.97
2018-07-02T05:10:36.826Z,989.01
2018-07-02T05:11:37.078Z,988.65
2018-07-02T05:12:37.166Z,988.49
2018-07-02T05:13:37.367Z,988.29
2018-07-02T05:14:37.565Z,988.11
2018-07-02T05:15:37.780Z,987.96
2018-07-02T05:16:37.971Z,987.89
2018-07-02T05:17:38.185Z,987.84
2018-07-02T05:18:38.402Z,987.80
2018-07-02T05:19:38.612Z,987.74
2018-07-02T05:20:38.809Z,987.72
2018-07-02T05:21:39.016Z,987.73
2018-07-02T05:22:39.222Z,987.73
2018-07-02T05:23:39.438Z,987.69
2018-07-02T05:24:39.632Z,987.71
2018-07-02T05:25:39.831Z,987.71
2018-07-02T05:26:40.026Z,987.71
2018-07-02T05:27:40.220Z,987.66
2018-07-02T05:28:40.424Z,987.66
2018-07-02T05:29:40.627Z,987.64
2018-07-02T05:30:40.832Z,987.61
2018-07-02T05:31:41.046Z,987.60
2018-07-02T05:32:41.247Z,987.60
2018-07-02T05:33:41.467Z,987.61
2018-07-02T05:34:41.659Z,987.65
2018-07-02T05:35:41.875Z,987.60
2018-07-02T05:36:42.092Z,987.62
2018-07-02T05:37:42.285Z,987.58
2018-07-02T05:38:42.500Z,987.57
2018-07-02T05:39:42.678Z,987.58
2018-07-02T05:40:42.891Z,987.63
2018-07-02T05:41:43.092Z,987.60
2018-07-02T05:42:43.305Z,987.59
2018-07-02T05:43:43.501Z,987.55
2018-07-02T05:44:43.696Z,987.63
2018-07-02T05:45:43.906Z,987.63
2018-07-02T05:46:44.110Z,987.70
2018-07-02T05:47:44.303Z,987.68
2018-07-02T05:48:44.519Z,987.65
2018-07-02T05:49:44.729Z,987.68
2018-07-02T05:50:44.933Z,987.69
2018-07-02T05:51:45.125Z,987.71
2018-07-02T05:52:45.320Z,987.64
2018-07-02T05:53:45.510Z,987.73
2018-07-02T05:54:45.707Z,987.76
2018-07-02T05:55:45.922Z,987.77
2018-07-02T05:56:46.121Z,987.78
2018-07-02T05:57:46.336Z,987.78
2018-07-02T05:58:46.557Z,987.77
2018-07-02T05:59:46.768Z,987.80
2018-07-02T06:00:46.993Z,987.74
2018-07-02T06:01:47.193Z,987.82
2018-07-02T06:02:47.412Z,987.85
2018-07-02T06:03:47.626Z,987.79
2018-07-02T06:04:47.811Z,987.76
2018-07-02T06:05:48.013Z,987.79
2018-07-02T06:06:48.227Z,987.80
2018-07-02T06:07:48.559Z,987.74
2018-07-02T06:08:48.666Z,987.78
2018-07-02T06:09:48.856Z,987.81
2018-07-02T06:10:49.077Z,987.98
2018-07-02T06:11:49.294Z,988.09
2018-07-02T06:12:49.501Z,988.18
2018-07-02T06:13:49.716Z,988.15
2018-07-02T06:14:49.917Z,988.12
2018-07-02T06:15:50.115Z,988.17
2018-07-02T06:16:50.340Z,988.19
2018-07-02T06:17:50.560Z,988.19
2018-07-02T06:18:50.773Z,988.26
2018-07-02T06:19:50.975Z,988.25
2018-07-02T06:20:51.169Z,988.27
2018-07-02T06:21:51.447Z,988.27
2018-07-02T06:22:51.526Z,988.29
2018-07-02T06:23:51.748Z,988.29
2018-07-02T06:24:52.069Z,988.30
2018-07-02T06:25:52.162Z,988.28
2018-07-02T06:26:52.379Z,988.28
2018-07-02T06:27:52.582Z,988.30
2018-07-02T06:28:52.772Z,988.28
2018-07-02T06:29:52.985Z,988.28
2018-07-02T06:30:53.199Z,988.23
2018-07-02T06:31:53.412Z,988.24
2018-07-02T06:32:53.620Z,988.21
2018-07-02T06:33:53.820Z,988.21
2018-07-02T06:34:54.019Z,988.27
2018-07-02T06:35:54.218Z,988.22
2018-07-02T06:36:54.414Z,988.25
2018-07-02T06:37:54.621Z,988.22
2018-07-02T06:38:54.839Z,988.21
2018-07-02T06:39:55.067Z,988.22
2018-07-02T06:40:55.263Z,988.24
2018-07-02T06:41:55.544Z,988.25
2018-07-02T06:42:55.702Z,988.24
2018-07-02T06:43:55.920Z,988.23
2018-07-02T06:44:56.116Z,988.21
2018-07-02T06:45:56.324Z,988.23
2018-07-02T06:46:56.541Z,988.24
2018-07-02T06:47:56.766Z,988.29
2018-07-02T06:48:56.988Z,988.31
2018-07-02T06:49:57.206Z,988.33
2018-07-02T06:50:57.399Z,988.33
2018-07-02T06:51:57.610Z,988.29
2018-07-02T06:52:57.819Z,988.27
2018-07-02T06:53:58.031Z,988.31
2018-07-02T06:54:58.253Z,988.33
2018-07-02T06:55:58.479Z,988.28
2018-07-02T06:56:58.684Z,988.28
2018-07-02T06:57:58.877Z,988.27
2018-07-02T06:58:59.079Z,988.27
2018-07-02T06:59:59.287Z,988.33
2018-07-02T07:00:59.508Z,988.28
2018-07-02T07:01:59.714Z,988.27
2018-07-02T07:02:59.903Z,988.26
2018-07-02T07:04:00.121Z,988.26
2018-07-02T07:06:31.956Z,988.24
2018-07-02T07:07:32.165Z,988.21
2018-07-02T07:08:32.369Z,988.18
2018-07-02T07:09:32.567Z,988.10
2018-07-02T07:10:32.766Z,988.09
2018-07-02T07:11:32.972Z,987.98
2018-07-02T07:12:33.186Z,988.01
2018-07-02T07:13:33.383Z,987.97
2018-07-02T07:14:33.604Z,987.96
2018-07-02T07:15:33.879Z,987.96
2018-07-02T07:16:34.047Z,987.93
2018-07-02T07:17:34.270Z,987.91
2018-07-02T07:18:34.472Z,987.86
2018-07-02T07:19:34.681Z,987.92
2018-07-02T07:20:34.907Z,987.87
2018-07-02T07:21:35.123Z,987.83
2018-07-02T07:22:35.334Z,987.83
2018-07-02T07:23:35.604Z,987.81
2018-07-02T07:24:35.705Z,987.84
2018-07-02T07:25:35.954Z,987.81
2018-07-02T07:26:36.138Z,987.81
2018-07-02T07:27:36.408Z,987.79
2018-07-02T07:28:36.559Z,987.83
2018-07-02T07:29:36.761Z,987.81
2018-07-02T07:30:37.019Z,987.83
2018-07-02T07:31:37.222Z,987.85
2018-07-02T07:32:37.430Z,987.86
2018-07-02T07:33:37.650Z,987.80
2018-07-02T07:34:37.840Z,987.75
2018-07-02T07:35:38.059Z,987.77
2018-07-02T07:36:38.263Z,987.76
2018-07-02T07:37:38.467Z,987.73
2018-07-02T07:38:38.694Z,987.71
2018-07-02T07:39:38.923Z,987.72
2018-07-02T07:40:39.153Z,987.66
2018-07-02T07:41:39.344Z,987.65
2018-07-02T07:42:39.570Z,987.61
2018-07-02T07:43:39.776Z,987.63
2018-07-02T07:44:39.996Z,987.69
2018-07-02T07:45:40.194Z,987.68
2018-07-02T07:46:40.414Z,987.64
2018-07-02T07:47:40.633Z,987.61
2018-07-02T07:48:40.864Z,987.60
2018-07-02T07:49:41.076Z,987.61
2018-07-02T07:50:41.291Z,987.56
2018-07-02T07:51:41.489Z,987.52
2018-07-02T07:52:41.688Z,987.58
2018-07-02T07:53:41.912Z,987.53
2018-07-02T07:54:42.111Z,987.59
2018-07-02T07:55:42.311Z,987.59
2018-07-02T07:56:42.513Z,987.65
2018-07-02T07:57:42.727Z,987.67
2018-07-02T07:58:42.953Z,987.70
2018-07-02T07:59:43.171Z,987.74
2018-07-02T08:00:43.385Z,987.73
2018-07-02T08:01:43.606Z,987.76
2018-07-02T08:02:43.826Z,987.70
2018-07-02T08:03:44.059Z,987.76
2018-07-02T08:04:44.238Z,987.75
2018-07-02T08:05:44.443Z,987.81
2018-07-02T08:06:44.647Z,987.77
2018-07-02T08:07:44.868Z,987.77
2018-07-02T08:08:45.063Z,987.79
2018-07-02T08:11:17.477Z,987.81
2018-07-02T08:12:17.163Z,987.84
2018-07-02T08:13:17.367Z,987.84
2018-07-02T08:14:17.576Z,987.82
2018-07-02T08:15:17.804Z,987.78
2018-07-02T08:16:18.006Z,987.81
2018-07-02T08:17:18.225Z,987.80
2018-07-02T08:18:18.447Z,987.80
2018-07-02T08:20:50.585Z,987.93
2018-07-02T08:21:50.774Z,987.84
2018-07-02T08:22:50.975Z,987.84
2018-07-02T08:23:51.234Z,987.88
2018-07-02T08:24:51.460Z,987.87
2018-07-02T08:25:51.664Z,987.87
2018-07-02T08:26:51.873Z,987.84
2018-07-02T08:27:52.073Z,987.87
2018-07-02T08:28:52.299Z,987.85
2018-07-02T08:29:52.518Z,987.85
2018-07-02T08:30:52.740Z,987.90
2018-07-02T08:31:52.938Z,987.88
2018-07-02T08:32:53.149Z,987.85
2018-07-02T08:33:53.340Z,987.86
2018-07-02T08:34:53.537Z,987.88
2018-07-02T08:35:53.756Z,987.88
2018-07-02T08:36:53.980Z,987.82
2018-07-02T08:37:54.179Z,987.88
2018-07-02T08:38:54.374Z,987.89
2018-07-02T08:39:54.597Z,987.88
2018-07-02T08:40:54.800Z,987.83
2018-07-02T08:41:55.024Z,987.84
2018-07-02T08:44:27.199Z,987.82
2018-07-02T08:45:27.382Z,987.85
2018-07-02T08:46:27.594Z,987.84
2018-07-02T08:47:27.791Z,987.86
2018-07-02T08:48:28.029Z,987.81
2018-07-02T08:49:28.246Z,987.87
2018-07-02T08:50:28.448Z,987.84
2018-07-02T08:51:28.687Z,987.90
2018-07-02T08:52:28.905Z,987.90
2018-07-02T08:53:29.113Z,987.89
2018-07-02T08:54:29.346Z,987.86
2018-07-02T08:55:29.568Z,987.86
2018-07-02T08:56:29.789Z,987.85
2018-07-02T08:57:30.021Z,987.89
2018-07-02T08:58:30.251Z,987.86
2018-07-02T08:59:30.445Z,987.88
2018-07-02T09:00:30.645Z,987.92
2018-07-02T09:01:30.859Z,987.93
2018-07-02T09:02:31.087Z,987.94
2018-07-02T09:03:31.318Z,987.95
2018-07-02T09:04:31.532Z,987.99
2018-07-02T09:05:31.734Z,987.92
2018-07-02T09:06:31.952Z,987.94
2018-07-02T09:07:32.155Z,988.00
2018-07-02T09:08:32.361Z,987.95
2018-07-02T09:09:32.583Z,987.91
2018-07-02T09:10:32.812Z,987.96
2018-07-02T09:11:33.036Z,988.00
2018-07-02T09:14:05.191Z,988.05
2018-07-02T09:15:05.376Z,988.05
2018-07-02T09:16:05.595Z,988.09
2018-07-02T09:17:05.813Z,988.14
2018-07-02T09:18:06.010Z,988.10
2018-07-02T09:19:06.224Z,988.07
2018-07-02T09:20:06.443Z,988.10
2018-07-02T09:21:06.695Z,988.16
2018-07-02T09:22:06.883Z,988.10
2018-07-02T09:23:07.113Z,988.21
2018-07-02T09:24:07.318Z,988.20
2018-07-02T09:25:07.527Z,988.18
2018-07-02T09:26:07.722Z,988.28
2018-07-02T09:27:07.924Z,988.28
2018-07-02T09:28:08.137Z,988.29
2018-07-02T09:29:08.344Z,988.29
2018-07-02T09:30:08.763Z,988.36
2018-07-02T09:31:08.789Z,988.40
2018-07-02T09:32:09.014Z,988.43
2018-07-02T09:33:09.224Z,988.50
2018-07-02T09:34:09.447Z,988.49
2018-07-02T09:35:09.665Z,988.52
2018-07-02T09:36:09.893Z,988.62
2018-07-02T09:37:10.120Z,988.65
2018-07-02T09:39:41.971Z,988.84
2018-07-02T09:40:42.158Z,988.74
2018-07-02T09:43:14.309Z,987.21
2018-07-02T09:44:14.508Z,987.25
2018-07-02T09:45:14.788Z,987.20
2018-07-02T09:46:14.955Z,987.29
2018-07-02T09:47:15.177Z,987.22
2018-07-02T09:48:15.369Z,987.21
2018-07-02T09:49:15.578Z,987.31
2018-07-02T09:50:15.774Z,987.24
2018-07-02T09:51:15.972Z,987.19
2018-07-02T09:52:16.173Z,987.27
2018-07-02T09:53:16.388Z,987.24
2018-07-02T09:54:16.589Z,987.16
2018-07-02T09:55:16.809Z,987.20
2018-07-02T09:57:48.963Z,987.13
2018-07-02T09:58:49.155Z,987.09
2018-07-02T09:59:49.364Z,987.12
2018-07-02T10:00:49.582Z,987.13
2018-07-02T10:01:49.794Z,987.08
2018-07-02T10:02:50.000Z,987.05
2018-07-02T10:03:50.202Z,987.01
2018-07-02T10:04:50.425Z,987.01
2018-07-02T10:05:50.637Z,987.01
2018-07-02T10:06:50.863Z,987.04
2018-07-02T10:07:51.081Z,987.12
2018-07-02T10:08:51.305Z,987.12
2018-07-02T10:09:51.494Z,987.06
2018-07-02T10:10:51.704Z,987.06
2018-07-02T10:11:51.902Z,987.00
2018-07-02T10:12:52.098Z,987.06
2018-07-02T10:15:24.522Z,987.01
2018-07-02T10:16:24.450Z,986.97
2018-07-02T10:17:24.696Z,986.98
2018-07-02T10:18:24.925Z,986.90
2018-07-02T10:19:25.132Z,986.91
2018-07-02T10:20:25.408Z,986.90
2018-07-02T10:21:25.545Z,986.90
2018-07-02T10:22:25.756Z,986.93
2018-07-02T10:23:25.997Z,986.94
2018-07-02T10:24:26.164Z,986.94
2018-07-02T10:25:26.366Z,986.94
2018-07-02T10:26:26.600Z,986.96
2018-07-02T10:27:26.815Z,986.93
2018-07-02T10:28:27.107Z,986.85
2018-07-02T10:29:27.277Z,986.82
2018-07-02T10:30:27.424Z,986.77
2018-07-02T10:31:27.835Z,986.68
2018-07-02T10:32:27.847Z,986.67
2018-07-02T10:33:28.043Z,986.60
2018-07-02T10:34:28.264Z,986.56
2018-07-02T10:35:28.470Z,986.48
2018-07-02T10:36:28.673Z,986.42
2018-07-02T10:37:28.907Z,986.39
2018-07-02T10:38:29.093Z,986.35
2018-07-02T10:39:29.327Z,986.36
2018-07-02T10:40:29.533Z,986.30
2018-07-02T10:41:29.767Z,986.29
2018-07-02T10:42:29.957Z,986.35
2018-07-02T10:43:30.180Z,986.34
2018-07-02T10:44:30.400Z,986.33
2018-07-02T10:45:30.614Z,986.29
2018-07-02T10:46:30.820Z,986.25
2018-07-02T10:47:31.024Z,986.29
2018-07-02T10:48:31.277Z,986.23
2018-07-02T10:49:31.454Z,986.26
2018-07-02T10:50:31.647Z,986.25
2018-07-02T10:51:31.846Z,986.27
2018-07-02T10:52:32.046Z,986.26
2018-07-02T10:53:32.248Z,986.24
2018-07-02T10:54:32.468Z,986.21
2018-07-02T10:55:32.731Z,986.22
2018-07-02T10:56:32.885Z,986.15
2018-07-02T10:57:33.100Z,986.13
2018-07-02T10:58:33.427Z,986.15
2018-07-02T10:59:33.506Z,986.11
2018-07-02T11:00:33.718Z,986.08
2018-07-02T11:01:33.919Z,986.03
2018-07-02T11:02:34.137Z,986.11
2018-07-02T11:03:34.332Z,986.04
2018-07-02T11:04:34.537Z,986.10
2018-07-02T11:05:34.728Z,986.09
2018-07-02T11:06:34.938Z,986.11
2018-07-02T11:07:35.163Z,986.09
2018-07-02T11:08:35.383Z,986.15
2018-07-02T11:09:35.599Z,986.06
2018-07-02T11:10:35.788Z,986.11
2018-07-02T11:11:35.983Z,986.10
2018-07-02T11:12:36.205Z,986.14
2018-07-02T11:13:36.423Z,986.20
2018-07-02T11:14:36.616Z,986.17
2018-07-02T11:15:36.811Z,986.15
2018-07-02T11:16:37.022Z,986.11
2018-07-02T11:17:37.217Z,986.11
2018-07-02T11:18:37.424Z,986.12
2018-07-02T11:19:37.654Z,986.05
2018-07-02T11:20:37.862Z,986.14
2018-07-02T11:21:38.078Z,986.10
2018-07-02T11:22:38.269Z,986.14
2018-07-02T11:23:38.502Z,986.22
2018-07-02T11:24:38.694Z,986.16
2018-07-02T11:25:38.904Z,986.13
2018-07-02T11:26:39.113Z,986.09
2018-07-02T11:27:39.305Z,986.05
2018-07-02T11:28:39.581Z,986.04
2018-07-02T11:29:39.642Z,985.97
2018-07-02T11:30:39.848Z,985.96
2018-07-02T11:31:40.066Z,985.93
2018-07-02T11:32:40.265Z,986.00
2018-07-02T11:33:40.476Z,986.03
2018-07-02T11:34:40.675Z,985.99
2018-07-02T11:35:40.894Z,985.95
2018-07-02T11:36:41.093Z,986.01
2018-07-02T11:37:41.285Z,986.00
2018-07-02T11:38:41.481Z,985.97
2018-07-02T11:39:41.690Z,985.95
2018-07-02T11:40:41.900Z,985.88
2018-07-02T11:41:42.103Z,985.94
2018-07-02T11:42:42.299Z,985.91
2018-07-02T11:43:42.514Z,985.93
2018-07-02T11:44:42.727Z,985.98
2018-07-02T11:45:42.936Z,985.95
2018-07-02T11:46:43.152Z,985.98
2018-07-02T11:47:43.370Z,985.91
2018-07-02T11:48:43.584Z,985.90
2018-07-02T11:49:43.799Z,985.91
2018-07-02T11:50:43.995Z,985.90
2018-07-02T11:51:44.198Z,985.91
2018-07-02T11:52:44.395Z,985.85
2018-07-02T11:53:44.584Z,985.87
2018-07-02T11:54:44.804Z,985.89
2018-07-02T11:55:44.997Z,985.87
2018-07-02T11:56:45.195Z,985.84
2018-07-02T11:57:45.498Z,985.82
2018-07-02T11:58:45.585Z,985.81
2018-07-02T11:59:45.806Z,985.86
2018-07-02T12:00:46.021Z,985.84
2018-07-02T12:01:46.260Z,985.83
2018-07-02T12:02:46.434Z,985.82
2018-07-02T12:03:46.663Z,985.88
2018-07-02T12:04:46.876Z,985.86
2018-07-02T12:05:47.085Z,985.80
2018-07-02T12:06:47.294Z,985.86
2018-07-02T12:07:47.513Z,985.83
2018-07-02T12:08:47.722Z,985.82
2018-07-02T12:09:47.912Z,985.81
2018-07-02T12:10:48.123Z,985.81
2018-07-02T12:11:48.329Z,985.79
2018-07-02T12:14:20.209Z,985.81
2018-07-02T12:15:20.395Z,985.83
2018-07-02T12:16:20.604Z,985.80
2018-07-02T12:17:20.823Z,985.82
2018-07-02T12:18:21.019Z,985.89
2018-07-02T12:20:53.177Z,985.76
2018-07-02T12:21:53.366Z,985.73
2018-07-02T12:22:53.564Z,985.75
2018-07-02T12:23:53.765Z,985.76
2018-07-02T12:24:53.982Z,985.79
2018-07-02T12:25:54.175Z,985.72
2018-07-02T12:26:54.397Z,985.73
2018-07-02T12:27:54.616Z,985.75
2018-07-02T12:28:54.822Z,985.76
2018-07-02T12:29:55.016Z,985.79
2018-07-02T12:30:55.207Z,985.74
2018-07-02T12:31:55.416Z,985.73
2018-07-02T12:32:55.625Z,985.78
2018-07-02T12:33:55.834Z,985.73
2018-07-02T12:34:56.033Z,985.78
2018-07-02T12:35:56.232Z,985.81
2018-07-02T12:36:56.461Z,985.80
2018-07-02T12:37:56.655Z,985.72
2018-07-02T12:40:28.532Z,985.73
2018-07-02T12:41:28.713Z,985.76
2018-07-02T12:44:01.424Z,985.75
2018-07-02T12:45:01.641Z,985.76
2018-07-02T12:46:01.855Z,985.69
2018-07-02T12:47:02.087Z,985.70
2018-07-02T12:48:02.285Z,985.75
2018-07-02T12:49:02.546Z,985.71
2018-07-02T12:50:02.636Z,985.73
2018-07-02T12:51:02.825Z,985.71